sensor_id;sensor_type;location;lat;lon;timestamp;temperature;humidity
1806;DHT22;901;48.142;11.516;2023-01-28T00:00:09;-0.60;99.90
1806;DHT22;901;48.142;11.516;2023-01-28T00:02:36;-0.60;99.90
1806;DHT22;901;48.142;11.516;2023-01-28T00:05:04;-0.70;99.90
1806;DHT22;901;48.142;11.516;2023-01-28T00:07:31;-0.70;99.90
1806;DHT22;901;48.142;11.516;2023-01-28T00:09:58;-0.70;99.90
1806;DHT22;901;48.142;11.516;2023-01-28T00:12:24;-0.70;99.90
1806;DHT22;901;48.142;11.516;2023-01-28T00:14:53;-0.70;99.90
1806;DHT22;901;48.142;11.516;2023-01-28T00:17:19;-0.70;99.90
1806;DHT22;901;48.142;11.516;2023-01-28T00:19:46;-0.70;99.90
1806;DHT22;901;48.142;11.516;2023-01-28T00:22:13;-0.70;99.90
1806;DHT22;901;48.142;11.516;2023-01-28T00:24:40;-0.70;99.90
1806;DHT22;901;48.142;11.516;2023-01-28T00:27:07;-0.70;99.90
1806;DHT22;901;48.142;11.516;2023-01-28T00:29:33;-0.70;99.90
1806;DHT22;901;48.142;11.516;2023-01-28T00:32:02;-0.70;99.90
1806;DHT22;901;48.142;11.516;2023-01-28T00:34:28;-0.60;99.90
1806;DHT22;901;48.142;11.516;2023-01-28T00:36:55;-0.60;99.90
1806;DHT22;901;48.142;11.516;2023-01-28T00:39:23;-0.60;99.90
1806;DHT22;901;48.142;11.516;2023-01-28T00:41:51;-0.60;99.90
1806;DHT22;901;48.142;11.516;2023-01-28T00:44:19;-0.60;99.90
1806;DHT22;901;48.142;11.516;2023-01-28T00:46:46;-0.50;99.90
1806;DHT22;901;48.142;11.516;2023-01-28T00:49:15;-0.50;99.90
1806;DHT22;901;48.142;11.516;2023-01-28T00:51:41;-0.50;99.90
1806;DHT22;901;48.142;11.516;2023-01-28T00:54:10;-0.50;99.90
1806;DHT22;901;48.142;11.516;2023-01-28T00:56:37;-0.50;99.90
1806;DHT22;901;48.142;11.516;2023-01-28T00:59:04;-0.50;99.90
1806;DHT22;901;48.142;11.516;2023-01-28T01:01:31;-0.60;99.90
1806;DHT22;901;48.142;11.516;2023-01-28T01:03:58;-0.60;99.90
1806;DHT22;901;48.142;11.516;2023-01-28T01:06:30;-0.50;99.90
1806;DHT22;901;48.142;11.516;2023-01-28T01:08:57;-0.50;99.90
1806;DHT22;901;48.142;11.516;2023-01-28T01:11:24;-0.50;99.90
1806;DHT22;901;48.142;11.516;2023-01-28T01:13:53;-0.60;99.90
1806;DHT22;901;48.142;11.516;2023-01-28T01:16:22;-0.60;99.90
1806;DHT22;901;48.142;11.516;2023-01-28T01:18:50;-0.60;99.90
1806;DHT22;901;48.142;11.516;2023-01-28T01:21:18;-0.50;99.90
1806;DHT22;901;48.142;11.516;2023-01-28T01:23:47;-0.50;99.90
1806;DHT22;901;48.142;11.516;2023-01-28T01:26:14;-0.50;99.90
1806;DHT22;901;48.142;11.516;2023-01-28T01:28:41;-0.50;99.90
1806;DHT22;901;48.142;11.516;2023-01-28T01:31:11;-0.50;99.90
1806;DHT22;901;48.142;11.516;2023-01-28T01:33:39;-0.60;99.90
1806;DHT22;901;48.142;11.516;2023-01-28T01:36:07;-0.60;99.90
1806;DHT22;901;48.142;11.516;2023-01-28T01:38:34;-0.60;99.90
1806;DHT22;901;48.142;11.516;2023-01-28T01:41:03;-0.60;99.90
1806;DHT22;901;48.142;11.516;2023-01-28T01:43:47;-0.60;99.90
1806;DHT22;901;48.142;11.516;2023-01-28T01:46:16;-0.60;99.90
1806;DHT22;901;48.142;11.516;2023-01-28T01:48:44;-0.70;99.90
1806;DHT22;901;48.142;11.516;2023-01-28T01:51:14;-0.60;99.90
1806;DHT22;901;48.142;11.516;2023-01-28T01:53:45;-0.60;99.90
1806;DHT22;901;48.142;11.516;2023-01-28T01:56:18;-0.60;99.90
1806;DHT22;901;48.142;11.516;2023-01-28T01:58:49;-0.50;99.90
1806;DHT22;901;48.142;11.516;2023-01-28T02:01:18;-0.60;99.90
1806;DHT22;901;48.142;11.516;2023-01-28T02:03:52;-0.60;99.90
1806;DHT22;901;48.142;11.516;2023-01-28T02:06:21;-0.70;99.90
1806;DHT22;901;48.142;11.516;2023-01-28T02:08:48;-0.70;99.90
1806;DHT22;901;48.142;11.516;2023-01-28T02:11:17;-0.50;99.90
1806;DHT22;901;48.142;11.516;2023-01-28T02:13:47;-0.60;99.90
1806;DHT22;901;48.142;11.516;2023-01-28T02:16:14;-0.60;99.90
1806;DHT22;901;48.142;11.516;2023-01-28T02:18:42;-0.60;99.90
1806;DHT22;901;48.142;11.516;2023-01-28T02:21:35;-0.60;99.90
1806;DHT22;901;48.142;11.516;2023-01-28T02:27:16;-0.70;99.90
1806;DHT22;901;48.142;11.516;2023-01-28T02:29:49;-0.60;99.90
1806;DHT22;901;48.142;11.516;2023-01-28T02:32:21;-0.70;99.90
1806;DHT22;901;48.142;11.516;2023-01-28T02:34:51;-0.70;99.90
1806;DHT22;901;48.142;11.516;2023-01-28T02:37:25;-0.70;99.90
1806;DHT22;901;48.142;11.516;2023-01-28T02:39:56;-0.60;99.90
1806;DHT22;901;48.142;11.516;2023-01-28T02:42:27;-1.00;99.90
1806;DHT22;901;48.142;11.516;2023-01-28T02:44:56;-0.60;99.90
1806;DHT22;901;48.142;11.516;2023-01-28T02:47:23;-0.70;99.90
1806;DHT22;901;48.142;11.516;2023-01-28T02:50:11;-0.60;99.90
1806;DHT22;901;48.142;11.516;2023-01-28T02:52:49;-0.60;99.90
1806;DHT22;901;48.142;11.516;2023-01-28T02:55:38;-0.50;99.90
1806;DHT22;901;48.142;11.516;2023-01-28T02:58:13;-0.50;99.90
1806;DHT22;901;48.142;11.516;2023-01-28T03:00:49;-0.60;99.90
1806;DHT22;901;48.142;11.516;2023-01-28T03:03:22;-0.50;99.90
1806;DHT22;901;48.142;11.516;2023-01-28T03:05:54;-0.50;99.90
1806;DHT22;901;48.142;11.516;2023-01-28T03:08:35;-0.60;99.90
1806;DHT22;901;48.142;11.516;2023-01-28T03:11:21;-0.50;99.90
1806;DHT22;901;48.142;11.516;2023-01-28T03:14:07;-0.60;99.90
1806;DHT22;901;48.142;11.516;2023-01-28T03:16:53;-0.60;99.90
1806;DHT22;901;48.142;11.516;2023-01-28T03:19:40;-0.50;99.90
1806;DHT22;901;48.142;11.516;2023-01-28T03:22:27;-0.50;99.90
1806;DHT22;901;48.142;11.516;2023-01-28T03:25:12;-0.40;99.90
1806;DHT22;901;48.142;11.516;2023-01-28T03:28:02;-0.50;99.90
1806;DHT22;901;48.142;11.516;2023-01-28T03:30:51;-0.50;99.90
1806;DHT22;901;48.142;11.516;2023-01-28T03:33:39;-0.50;99.90
1806;DHT22;901;48.142;11.516;2023-01-28T03:36:24;-0.50;99.90
1806;DHT22;901;48.142;11.516;2023-01-28T03:39:08;-0.60;99.90
1806;DHT22;901;48.142;11.516;2023-01-28T03:41:35;-0.50;99.90
1806;DHT22;901;48.142;11.516;2023-01-28T03:44:02;-0.50;99.90
1806;DHT22;901;48.142;11.516;2023-01-28T03:46:46;-0.40;99.90
1806;DHT22;901;48.142;11.516;2023-01-28T03:49:15;-0.50;99.90
1806;DHT22;901;48.142;11.516;2023-01-28T03:51:42;-0.50;99.90
1806;DHT22;901;48.142;11.516;2023-01-28T03:54:10;-0.40;99.90
1806;DHT22;901;48.142;11.516;2023-01-28T03:56:37;-0.40;99.90
1806;DHT22;901;48.142;11.516;2023-01-28T03:59:05;-0.40;99.90
1806;DHT22;901;48.142;11.516;2023-01-28T04:01:32;-0.40;99.90
1806;DHT22;901;48.142;11.516;2023-01-28T04:03:58;-0.40;99.90
1806;DHT22;901;48.142;11.516;2023-01-28T04:06:27;-0.40;99.90
1806;DHT22;901;48.142;11.516;2023-01-28T04:08:54;-0.40;99.90
1806;DHT22;901;48.142;11.516;2023-01-28T04:11:23;-0.40;99.90
1806;DHT22;901;48.142;11.516;2023-01-28T04:13:51;-0.40;99.90
1806;DHT22;901;48.142;11.516;2023-01-28T04:16:18;-0.40;99.90
1806;DHT22;901;48.142;11.516;2023-01-28T04:18:45;-0.30;99.90
1806;DHT22;901;48.142;11.516;2023-01-28T04:21:13;-0.30;99.90
1806;DHT22;901;48.142;11.516;2023-01-28T04:23:41;-0.30;99.90
1806;DHT22;901;48.142;11.516;2023-01-28T04:26:08;-0.30;99.90
1806;DHT22;901;48.142;11.516;2023-01-28T04:28:34;-0.30;99.90
1806;DHT22;901;48.142;11.516;2023-01-28T04:31:01;-0.30;99.90
1806;DHT22;901;48.142;11.516;2023-01-28T04:33:28;-0.40;99.90
1806;DHT22;901;48.142;11.516;2023-01-28T04:35:55;-0.40;99.90
1806;DHT22;901;48.142;11.516;2023-01-28T04:38:22;-0.40;99.90
1806;DHT22;901;48.142;11.516;2023-01-28T04:40:51;-0.30;99.90
1806;DHT22;901;48.142;11.516;2023-01-28T04:43:18;-0.30;99.90
1806;DHT22;901;48.142;11.516;2023-01-28T04:45:45;-0.30;99.90
1806;DHT22;901;48.142;11.516;2023-01-28T04:48:12;-0.40;99.90
1806;DHT22;901;48.142;11.516;2023-01-28T04:50:40;-0.50;99.90
1806;DHT22;901;48.142;11.516;2023-01-28T04:53:08;-0.50;99.90
1806;DHT22;901;48.142;11.516;2023-01-28T04:55:35;-0.60;99.90
1806;DHT22;901;48.142;11.516;2023-01-28T04:58:03;-0.60;99.90
1806;DHT22;901;48.142;11.516;2023-01-28T05:00:30;-0.60;99.90
1806;DHT22;901;48.142;11.516;2023-01-28T05:02:57;-0.70;99.90
1806;DHT22;901;48.142;11.516;2023-01-28T05:05:23;-0.60;99.90
1806;DHT22;901;48.142;11.516;2023-01-28T05:07:51;-0.70;99.90
1806;DHT22;901;48.142;11.516;2023-01-28T05:10:18;-0.60;99.90
1806;DHT22;901;48.142;11.516;2023-01-28T05:12:47;-0.60;99.90
1806;DHT22;901;48.142;11.516;2023-01-28T05:15:16;-0.60;99.90
1806;DHT22;901;48.142;11.516;2023-01-28T05:17:43;-0.60;99.90
1806;DHT22;901;48.142;11.516;2023-01-28T05:20:11;-0.60;99.90
1806;DHT22;901;48.142;11.516;2023-01-28T05:22:38;-0.70;99.90
1806;DHT22;901;48.142;11.516;2023-01-28T05:25:06;-0.70;99.90
1806;DHT22;901;48.142;11.516;2023-01-28T05:27:33;-0.70;99.90
1806;DHT22;901;48.142;11.516;2023-01-28T05:30:00;-0.70;99.90
1806;DHT22;901;48.142;11.516;2023-01-28T05:32:28;-0.60;99.90
1806;DHT22;901;48.142;11.516;2023-01-28T05:34:55;-0.60;99.90
1806;DHT22;901;48.142;11.516;2023-01-28T05:37:22;-0.70;99.90
1806;DHT22;901;48.142;11.516;2023-01-28T05:39:48;-0.70;99.90
1806;DHT22;901;48.142;11.516;2023-01-28T05:42:15;-0.70;99.90
1806;DHT22;901;48.142;11.516;2023-01-28T05:44:45;-0.60;99.90
1806;DHT22;901;48.142;11.516;2023-01-28T05:47:12;-0.50;99.90
1806;DHT22;901;48.142;11.516;2023-01-28T05:49:40;-0.60;99.90
1806;DHT22;901;48.142;11.516;2023-01-28T05:52:07;-0.50;99.90
1806;DHT22;901;48.142;11.516;2023-01-28T05:54:33;-0.50;99.90
1806;DHT22;901;48.142;11.516;2023-01-28T05:57:00;-0.60;99.90
1806;DHT22;901;48.142;11.516;2023-01-28T05:59:27;-0.60;99.90
1806;DHT22;901;48.142;11.516;2023-01-28T06:01:54;-0.50;99.90
1806;DHT22;901;48.142;11.516;2023-01-28T06:04:20;-0.60;99.90
1806;DHT22;901;48.142;11.516;2023-01-28T06:06:49;-0.60;99.90
1806;DHT22;901;48.142;11.516;2023-01-28T06:09:15;-0.60;99.90
1806;DHT22;901;48.142;11.516;2023-01-28T06:11:42;-0.60;99.90
1806;DHT22;901;48.142;11.516;2023-01-28T06:14:10;-0.50;99.90
1806;DHT22;901;48.142;11.516;2023-01-28T06:16:37;-0.50;99.90
1806;DHT22;901;48.142;11.516;2023-01-28T06:19:03;-0.40;99.90
1806;DHT22;901;48.142;11.516;2023-01-28T06:21:30;-0.40;99.90
1806;DHT22;901;48.142;11.516;2023-01-28T06:23:58;-0.50;99.90
1806;DHT22;901;48.142;11.516;2023-01-28T06:26:25;-0.50;99.90
1806;DHT22;901;48.142;11.516;2023-01-28T06:28:52;-0.40;99.90
1806;DHT22;901;48.142;11.516;2023-01-28T06:31:19;-0.40;99.90
1806;DHT22;901;48.142;11.516;2023-01-28T06:33:45;-0.50;99.90
1806;DHT22;901;48.142;11.516;2023-01-28T06:36:12;-0.50;99.90
1806;DHT22;901;48.142;11.516;2023-01-28T06:38:39;-0.50;99.90
1806;DHT22;901;48.142;11.516;2023-01-28T06:41:07;-0.50;99.90
1806;DHT22;901;48.142;11.516;2023-01-28T06:43:34;-0.50;99.90
1806;DHT22;901;48.142;11.516;2023-01-28T06:46:01;-0.50;99.90
1806;DHT22;901;48.142;11.516;2023-01-28T06:48:28;-0.40;99.90
1806;DHT22;901;48.142;11.516;2023-01-28T06:50:55;-0.50;99.90
1806;DHT22;901;48.142;11.516;2023-01-28T06:53:22;-0.40;99.90
1806;DHT22;901;48.142;11.516;2023-01-28T06:55:49;-0.40;99.90
1806;DHT22;901;48.142;11.516;2023-01-28T06:58:17;-0.30;99.90
1806;DHT22;901;48.142;11.516;2023-01-28T07:00:44;-0.30;99.90
1806;DHT22;901;48.142;11.516;2023-01-28T07:03:10;-0.40;99.90
1806;DHT22;901;48.142;11.516;2023-01-28T07:05:37;-0.40;99.90
1806;DHT22;901;48.142;11.516;2023-01-28T07:08:04;-0.30;99.90
1806;DHT22;901;48.142;11.516;2023-01-28T07:10:31;-0.30;99.90
1806;DHT22;901;48.142;11.516;2023-01-28T07:12:58;-0.30;99.90
1806;DHT22;901;48.142;11.516;2023-01-28T07:15:26;-0.20;99.90
1806;DHT22;901;48.142;11.516;2023-01-28T07:17:53;-0.20;99.90
1806;DHT22;901;48.142;11.516;2023-01-28T07:20:20;-0.20;99.90
1806;DHT22;901;48.142;11.516;2023-01-28T07:22:47;-0.20;99.90
1806;DHT22;901;48.142;11.516;2023-01-28T07:25:14;-0.30;99.90
1806;DHT22;901;48.142;11.516;2023-01-28T07:27:48;-0.20;99.90
1806;DHT22;901;48.142;11.516;2023-01-28T07:30:17;-0.20;99.90
1806;DHT22;901;48.142;11.516;2023-01-28T07:32:45;-0.40;99.90
1806;DHT22;901;48.142;11.516;2023-01-28T07:35:12;-0.30;99.90
1806;DHT22;901;48.142;11.516;2023-01-28T07:37:40;-0.40;99.90
1806;DHT22;901;48.142;11.516;2023-01-28T07:40:08;-0.40;99.90
1806;DHT22;901;48.142;11.516;2023-01-28T07:42:35;-0.40;99.90
1806;DHT22;901;48.142;11.516;2023-01-28T07:45:02;-0.30;99.90
1806;DHT22;901;48.142;11.516;2023-01-28T07:47:30;-0.40;99.90
1806;DHT22;901;48.142;11.516;2023-01-28T07:49:59;-0.40;99.90
1806;DHT22;901;48.142;11.516;2023-01-28T07:52:26;-0.50;99.90
1806;DHT22;901;48.142;11.516;2023-01-28T07:54:53;-0.40;99.90
1806;DHT22;901;48.142;11.516;2023-01-28T07:57:19;-0.40;99.90
1806;DHT22;901;48.142;11.516;2023-01-28T07:59:48;-0.30;99.90
1806;DHT22;901;48.142;11.516;2023-01-28T08:02:16;-0.40;99.90
1806;DHT22;901;48.142;11.516;2023-01-28T08:04:43;-0.40;99.90
1806;DHT22;901;48.142;11.516;2023-01-28T08:07:11;-0.40;99.90
1806;DHT22;901;48.142;11.516;2023-01-28T08:09:38;-0.50;99.90
1806;DHT22;901;48.142;11.516;2023-01-28T08:12:05;-0.30;99.90
1806;DHT22;901;48.142;11.516;2023-01-28T08:14:31;-0.30;99.90
1806;DHT22;901;48.142;11.516;2023-01-28T08:16:58;-0.20;99.90
1806;DHT22;901;48.142;11.516;2023-01-28T08:19:25;-0.20;99.90
1806;DHT22;901;48.142;11.516;2023-01-28T08:21:52;-0.20;99.90
1806;DHT22;901;48.142;11.516;2023-01-28T08:24:20;-0.10;99.90
1806;DHT22;901;48.142;11.516;2023-01-28T08:26:47;-0.10;99.90
1806;DHT22;901;48.142;11.516;2023-01-28T08:29:14;0.00;99.90
1806;DHT22;901;48.142;11.516;2023-01-28T08:31:41;0.00;99.90
1806;DHT22;901;48.142;11.516;2023-01-28T08:34:08;0.20;99.90
1806;DHT22;901;48.142;11.516;2023-01-28T08:36:35;0.20;99.90
1806;DHT22;901;48.142;11.516;2023-01-28T08:39:01;0.40;99.90
1806;DHT22;901;48.142;11.516;2023-01-28T08:41:30;0.40;99.90
1806;DHT22;901;48.142;11.516;2023-01-28T08:43:57;0.30;99.90
1806;DHT22;901;48.142;11.516;2023-01-28T08:46:24;0.20;99.90
1806;DHT22;901;48.142;11.516;2023-01-28T08:48:51;0.20;99.90
1806;DHT22;901;48.142;11.516;2023-01-28T08:51:18;0.20;99.90
1806;DHT22;901;48.142;11.516;2023-01-28T08:53:45;0.20;99.90
1806;DHT22;901;48.142;11.516;2023-01-28T08:56:11;0.20;99.90
1806;DHT22;901;48.142;11.516;2023-01-28T08:58:40;0.20;99.90
1806;DHT22;901;48.142;11.516;2023-01-28T09:01:06;0.40;99.90
1806;DHT22;901;48.142;11.516;2023-01-28T09:03:33;0.40;99.90
1806;DHT22;901;48.142;11.516;2023-01-28T09:06:02;0.40;99.90
1806;DHT22;901;48.142;11.516;2023-01-28T09:08:29;0.40;99.90
1806;DHT22;901;48.142;11.516;2023-01-28T09:10:56;0.60;99.90
1806;DHT22;901;48.142;11.516;2023-01-28T09:13:24;0.80;99.90
1806;DHT22;901;48.142;11.516;2023-01-28T09:15:52;0.80;99.90
1806;DHT22;901;48.142;11.516;2023-01-28T09:18:19;0.90;99.90
1806;DHT22;901;48.142;11.516;2023-01-28T09:20:46;1.00;99.90
1806;DHT22;901;48.142;11.516;2023-01-28T09:23:13;0.90;99.90
1806;DHT22;901;48.142;11.516;2023-01-28T09:25:40;0.90;99.90
1806;DHT22;901;48.142;11.516;2023-01-28T09:28:07;1.00;99.90
1806;DHT22;901;48.142;11.516;2023-01-28T09:30:34;0.90;99.90
1806;DHT22;901;48.142;11.516;2023-01-28T09:33:02;1.10;99.90
1806;DHT22;901;48.142;11.516;2023-01-28T09:35:29;1.20;99.90
1806;DHT22;901;48.142;11.516;2023-01-28T09:37:56;1.30;99.90
1806;DHT22;901;48.142;11.516;2023-01-28T09:40:29;1.40;99.90
1806;DHT22;901;48.142;11.516;2023-01-28T09:43:05;1.30;99.90
1806;DHT22;901;48.142;11.516;2023-01-28T09:45:37;1.50;99.90
1806;DHT22;901;48.142;11.516;2023-01-28T09:48:12;1.50;99.90
1806;DHT22;901;48.142;11.516;2023-01-28T09:50:42;1.40;99.90
1806;DHT22;901;48.142;11.516;2023-01-28T09:53:12;1.50;99.90
1806;DHT22;901;48.142;11.516;2023-01-28T09:55:44;1.60;99.90
1806;DHT22;901;48.142;11.516;2023-01-28T09:58:12;1.80;99.90
1806;DHT22;901;48.142;11.516;2023-01-28T10:00:46;1.80;99.90
1806;DHT22;901;48.142;11.516;2023-01-28T10:03:32;1.90;99.90
1806;DHT22;901;48.142;11.516;2023-01-28T10:06:10;2.00;99.90
1806;DHT22;901;48.142;11.516;2023-01-28T10:09:04;2.10;99.90
1806;DHT22;901;48.142;11.516;2023-01-28T10:14:29;2.40;99.90
1806;DHT22;901;48.142;11.516;2023-01-28T10:17:05;2.50;99.90
1806;DHT22;901;48.142;11.516;2023-01-28T10:19:37;2.40;99.90
1806;DHT22;901;48.142;11.516;2023-01-28T10:22:10;2.40;99.90
1806;DHT22;901;48.142;11.516;2023-01-28T10:24:40;2.40;99.90
1806;DHT22;901;48.142;11.516;2023-01-28T10:27:13;2.80;99.90
1806;DHT22;901;48.142;11.516;2023-01-28T10:29:40;2.90;99.90
1806;DHT22;901;48.142;11.516;2023-01-28T10:32:16;3.20;99.90
1806;DHT22;901;48.142;11.516;2023-01-28T10:34:48;3.30;99.90
1806;DHT22;901;48.142;11.516;2023-01-28T10:37:15;3.50;99.90
1806;DHT22;901;48.142;11.516;2023-01-28T10:39:42;3.40;99.90
1806;DHT22;901;48.142;11.516;2023-01-28T10:42:16;3.40;99.90
1806;DHT22;901;48.142;11.516;2023-01-28T10:44:46;3.40;99.90
1806;DHT22;901;48.142;11.516;2023-01-28T10:47:18;3.30;99.90
1806;DHT22;901;48.142;11.516;2023-01-28T10:49:51;3.40;99.90
1806;DHT22;901;48.142;11.516;2023-01-28T10:52:18;3.50;99.90
1806;DHT22;901;48.142;11.516;2023-01-28T10:54:45;3.50;99.90
1806;DHT22;901;48.142;11.516;2023-01-28T10:57:14;3.40;99.90
1806;DHT22;901;48.142;11.516;2023-01-28T10:59:43;3.20;99.90
1806;DHT22;901;48.142;11.516;2023-01-28T11:02:25;3.50;99.90
1806;DHT22;901;48.142;11.516;2023-01-28T11:05:03;3.20;99.90
1806;DHT22;901;48.142;11.516;2023-01-28T11:07:30;3.40;99.90
1806;DHT22;901;48.142;11.516;2023-01-28T11:09:57;3.50;99.90
1806;DHT22;901;48.142;11.516;2023-01-28T11:12:26;3.50;99.90
1806;DHT22;901;48.142;11.516;2023-01-28T11:14:55;3.30;99.90
1806;DHT22;901;48.142;11.516;2023-01-28T11:17:23;3.70;99.90
1806;DHT22;901;48.142;11.516;2023-01-28T11:19:52;3.90;99.90
1806;DHT22;901;48.142;11.516;2023-01-28T11:22:26;3.60;99.90
1806;DHT22;901;48.142;11.516;2023-01-28T11:24:57;3.40;99.90
1806;DHT22;901;48.142;11.516;2023-01-28T11:27:27;3.40;99.90
1806;DHT22;901;48.142;11.516;2023-01-28T11:29:56;3.50;99.90
1806;DHT22;901;48.142;11.516;2023-01-28T11:32:27;3.30;99.90
1806;DHT22;901;48.142;11.516;2023-01-28T11:34:55;3.70;99.90
1806;DHT22;901;48.142;11.516;2023-01-28T11:37:26;3.70;99.90
1806;DHT22;901;48.142;11.516;2023-01-28T11:40:13;3.70;99.90
1806;DHT22;901;48.142;11.516;2023-01-28T11:42:45;3.50;99.90
1806;DHT22;901;48.142;11.516;2023-01-28T11:45:15;3.20;99.90
1806;DHT22;901;48.142;11.516;2023-01-28T11:47:57;3.10;99.90
1806;DHT22;901;48.142;11.516;2023-01-28T11:50:32;3.00;99.90
1806;DHT22;901;48.142;11.516;2023-01-28T11:53:23;3.30;99.90
1806;DHT22;901;48.142;11.516;2023-01-28T11:56:07;3.50;99.90
1806;DHT22;901;48.142;11.516;2023-01-28T11:58:43;3.30;99.90
1806;DHT22;901;48.142;11.516;2023-01-28T12:01:18;3.40;99.90
1806;DHT22;901;48.142;11.516;2023-01-28T12:04:16;3.20;99.90
1806;DHT22;901;48.142;11.516;2023-01-28T12:06:58;3.20;99.90
1806;DHT22;901;48.142;11.516;2023-01-28T12:09:36;3.30;99.90
1806;DHT22;901;48.142;11.516;2023-01-28T12:12:23;3.10;99.90
1806;DHT22;901;48.142;11.516;2023-01-28T12:17:51;2.70;99.90
1806;DHT22;901;48.142;11.516;2023-01-28T12:20:27;2.70;99.90
1806;DHT22;901;48.142;11.516;2023-01-28T12:23:15;2.70;99.90
1806;DHT22;901;48.142;11.516;2023-01-28T12:26:01;2.90;99.90
1806;DHT22;901;48.142;11.516;2023-01-28T12:28:37;2.70;99.90
1806;DHT22;901;48.142;11.516;2023-01-28T12:31:30;2.40;99.90
1806;DHT22;901;48.142;11.516;2023-01-28T12:37:01;1.90;99.90
1806;DHT22;901;48.142;11.516;2023-01-28T12:39:42;1.60;99.90
1806;DHT22;901;48.142;11.516;2023-01-28T12:42:17;1.40;99.90
1806;DHT22;901;48.142;11.516;2023-01-28T12:44:48;1.30;99.90
1806;DHT22;901;48.142;11.516;2023-01-28T12:47:21;1.40;99.90
1806;DHT22;901;48.142;11.516;2023-01-28T12:49:51;1.40;99.90
1806;DHT22;901;48.142;11.516;2023-01-28T12:52:22;1.30;99.90
1806;DHT22;901;48.142;11.516;2023-01-28T12:54:55;1.20;99.90
1806;DHT22;901;48.142;11.516;2023-01-28T12:57:27;1.30;99.90
1806;DHT22;901;48.142;11.516;2023-01-28T13:00:01;1.40;99.90
1806;DHT22;901;48.142;11.516;2023-01-28T13:02:33;1.40;99.90
1806;DHT22;901;48.142;11.516;2023-01-28T13:05:06;1.40;99.90
1806;DHT22;901;48.142;11.516;2023-01-28T13:07:37;1.50;99.90
1806;DHT22;901;48.142;11.516;2023-01-28T13:10:14;1.50;99.90
1806;DHT22;901;48.142;11.516;2023-01-28T13:12:45;1.40;99.90
1806;DHT22;901;48.142;11.516;2023-01-28T13:15:15;1.30;99.90
1806;DHT22;901;48.142;11.516;2023-01-28T13:17:53;1.30;99.90
1806;DHT22;901;48.142;11.516;2023-01-28T13:20:33;1.30;99.90
1806;DHT22;901;48.142;11.516;2023-01-28T13:23:02;1.30;99.90
1806;DHT22;901;48.142;11.516;2023-01-28T13:25:32;1.40;99.90
1806;DHT22;901;48.142;11.516;2023-01-28T13:28:03;1.50;99.90
1806;DHT22;901;48.142;11.516;2023-01-28T13:30:32;1.50;99.90
1806;DHT22;901;48.142;11.516;2023-01-28T13:33:00;1.60;99.90
1806;DHT22;901;48.142;11.516;2023-01-28T13:35:31;1.50;99.90
1806;DHT22;901;48.142;11.516;2023-01-28T13:37:59;1.70;99.90
1806;DHT22;901;48.142;11.516;2023-01-28T13:40:32;1.60;99.90
1806;DHT22;901;48.142;11.516;2023-01-28T13:43:03;1.50;99.90
1806;DHT22;901;48.142;11.516;2023-01-28T13:45:30;1.70;99.90
1806;DHT22;901;48.142;11.516;2023-01-28T13:48:04;1.80;99.90
1806;DHT22;901;48.142;11.516;2023-01-28T13:50:41;1.80;99.90
1806;DHT22;901;48.142;11.516;2023-01-28T13:53:18;1.80;99.90
1806;DHT22;901;48.142;11.516;2023-01-28T13:55:48;1.70;99.90
1806;DHT22;901;48.142;11.516;2023-01-28T13:58:56;1.60;99.90
1806;DHT22;901;48.142;11.516;2023-01-28T14:01:56;1.50;99.90
1806;DHT22;901;48.142;11.516;2023-01-28T14:04:55;1.40;99.90
1806;DHT22;901;48.142;11.516;2023-01-28T14:07:39;1.50;99.90
1806;DHT22;901;48.142;11.516;2023-01-28T14:10:37;1.50;99.90
1806;DHT22;901;48.142;11.516;2023-01-28T14:16:29;1.30;99.90
1806;DHT22;901;48.142;11.516;2023-01-28T14:19:00;1.30;99.90
1806;DHT22;901;48.142;11.516;2023-01-28T14:21:31;1.40;99.90
1806;DHT22;901;48.142;11.516;2023-01-28T14:23:59;1.30;99.90
1806;DHT22;901;48.142;11.516;2023-01-28T14:26:33;1.30;99.90
1806;DHT22;901;48.142;11.516;2023-01-28T14:29:16;1.30;99.90
1806;DHT22;901;48.142;11.516;2023-01-28T14:31:46;1.20;99.90
1806;DHT22;901;48.142;11.516;2023-01-28T14:34:19;1.10;99.90
1806;DHT22;901;48.142;11.516;2023-01-28T14:36:48;1.20;99.90
1806;DHT22;901;48.142;11.516;2023-01-28T14:39:17;1.10;99.90
1806;DHT22;901;48.142;11.516;2023-01-28T14:41:47;1.20;99.90
1806;DHT22;901;48.142;11.516;2023-01-28T14:44:28;1.30;99.90
1806;DHT22;901;48.142;11.516;2023-01-28T14:47:16;1.30;99.90
1806;DHT22;901;48.142;11.516;2023-01-28T14:50:02;1.40;99.90
1806;DHT22;901;48.142;11.516;2023-01-28T14:52:46;1.30;99.90
1806;DHT22;901;48.142;11.516;2023-01-28T14:55:26;1.20;99.90
1806;DHT22;901;48.142;11.516;2023-01-28T14:57:57;1.20;99.90
1806;DHT22;901;48.142;11.516;2023-01-28T15:00:27;1.20;99.90
1806;DHT22;901;48.142;11.516;2023-01-28T15:02:55;1.20;99.90
1806;DHT22;901;48.142;11.516;2023-01-28T15:05:23;1.20;99.90
1806;DHT22;901;48.142;11.516;2023-01-28T15:07:51;1.30;99.90
1806;DHT22;901;48.142;11.516;2023-01-28T15:10:20;1.40;99.90
1806;DHT22;901;48.142;11.516;2023-01-28T15:12:51;1.40;99.90
1806;DHT22;901;48.142;11.516;2023-01-28T15:15:25;1.40;99.90
1806;DHT22;901;48.142;11.516;2023-01-28T15:17:55;1.40;99.90
1806;DHT22;901;48.142;11.516;2023-01-28T15:20:23;1.40;99.90
1806;DHT22;901;48.142;11.516;2023-01-28T15:22:52;1.50;99.90
1806;DHT22;901;48.142;11.516;2023-01-28T15:25:21;1.40;99.90
1806;DHT22;901;48.142;11.516;2023-01-28T15:27:49;1.40;99.90
1806;DHT22;901;48.142;11.516;2023-01-28T15:30:20;1.40;99.90
1806;DHT22;901;48.142;11.516;2023-01-28T15:33:01;1.40;99.90
1806;DHT22;901;48.142;11.516;2023-01-28T15:35:28;1.40;99.90
1806;DHT22;901;48.142;11.516;2023-01-28T15:37:55;1.30;99.90
1806;DHT22;901;48.142;11.516;2023-01-28T15:40:23;1.40;99.90
1806;DHT22;901;48.142;11.516;2023-01-28T15:42:52;1.30;99.90
1806;DHT22;901;48.142;11.516;2023-01-28T15:45:21;1.20;99.90
1806;DHT22;901;48.142;11.516;2023-01-28T15:47:51;1.20;99.90
1806;DHT22;901;48.142;11.516;2023-01-28T15:50:22;1.20;99.90
1806;DHT22;901;48.142;11.516;2023-01-28T15:52:51;1.20;99.90
1806;DHT22;901;48.142;11.516;2023-01-28T15:55:35;1.20;99.90
1806;DHT22;901;48.142;11.516;2023-01-28T15:58:15;1.30;99.90
1806;DHT22;901;48.142;11.516;2023-01-28T16:00:43;1.20;99.90
1806;DHT22;901;48.142;11.516;2023-01-28T16:03:17;1.30;99.90
1806;DHT22;901;48.142;11.516;2023-01-28T16:05:55;1.30;99.90
1806;DHT22;901;48.142;11.516;2023-01-28T16:08:27;1.30;99.90
1806;DHT22;901;48.142;11.516;2023-01-28T16:10:55;1.30;99.90
1806;DHT22;901;48.142;11.516;2023-01-28T16:13:24;1.20;99.90
1806;DHT22;901;48.142;11.516;2023-01-28T16:15:54;1.20;99.90
1806;DHT22;901;48.142;11.516;2023-01-28T16:18:28;1.20;99.90
1806;DHT22;901;48.142;11.516;2023-01-28T16:20:57;1.30;99.90
1806;DHT22;901;48.142;11.516;2023-01-28T16:23:26;1.30;99.90
1806;DHT22;901;48.142;11.516;2023-01-28T16:26:00;1.20;99.90
1806;DHT22;901;48.142;11.516;2023-01-28T16:28:28;1.10;99.90
1806;DHT22;901;48.142;11.516;2023-01-28T16:30:56;1.10;99.90
1806;DHT22;901;48.142;11.516;2023-01-28T16:33:24;1.10;99.90
1806;DHT22;901;48.142;11.516;2023-01-28T16:35:52;1.00;99.90
1806;DHT22;901;48.142;11.516;2023-01-28T16:38:21;1.00;99.90
1806;DHT22;901;48.142;11.516;2023-01-28T16:40:48;1.00;99.90
1806;DHT22;901;48.142;11.516;2023-01-28T16:43:15;1.00;99.90
1806;DHT22;901;48.142;11.516;2023-01-28T16:45:43;0.90;99.90
1806;DHT22;901;48.142;11.516;2023-01-28T16:48:10;0.90;99.90